Time;durP1;ratioP1;P1;durP2;ratioP2;P2;SDS_P1;SDS_P2;PMS_P1;PMS_P2;Temp;Humidity;BMP_temperature;BMP_pressure;BME280_temperature;BME280_humidity;BME280_pressure;Samples;Min_cycle;Max_cycle;Signal;HPM_P1;HPM_P2
2021/09/03 00:02:16;;;;;;;19.20;11.52;;;;;;;22.87;45.02;102619.69;4991446;28;20105;-77
2021/09/03 00:04:42;;;;;;;20.10;12.40;;;;;;;22.88;45.27;102623.31;4991349;28;20038;-77
2021/09/03 00:07:09;;;;;;;14.55;10.32;;;;;;;22.88;44.98;102623.31;4991193;28;20033;-79
2021/09/03 00:09:35;;;;;;;17.52;11.82;;;;;;;22.78;45.55;102620.97;4991271;28;20030;-77
2021/09/03 00:12:02;;;;;;;14.95;11.00;;;;;;;22.99;44.80;102616.09;4991370;28;20101;-77
2021/09/03 00:14:27;;;;;;;19.30;12.13;;;;;;;23.06;44.96;102602.34;4991159;28;20423;-77
2021/09/03 00:16:53;;;;;;;14.57;9.80;;;;;;;22.95;45.36;102612.38;4991220;28;20031;-77
2021/09/03 00:19:19;;;;;;;19.98;10.93;;;;;;;22.88;45.54;102610.16;4991389;28;20095;-77
2021/09/03 00:21:45;;;;;;;16.10;10.57;;;;;;;22.91;45.47;102603.91;4991097;28;20029;-77
2021/09/03 00:24:11;;;;;;;18.35;11.23;;;;;;;22.87;45.60;102610.53;4990776;28;20405;-77
2021/09/03 00:26:37;;;;;;;19.13;11.45;;;;;;;22.89;45.61;102597.03;4991038;28;20046;-77
2021/09/03 00:29:03;;;;;;;21.50;11.80;;;;;;;22.88;45.35;102595.44;4991009;28;20049;-77
2021/09/03 00:31:29;;;;;;;16.85;10.88;;;;;;;22.95;45.69;102598.44;4990224;28;20711;-77
2021/09/03 00:33:55;;;;;;;16.27;10.02;;;;;;;23.00;45.16;102595.41;4990874;28;20101;-77
2021/09/03 00:36:21;;;;;;;18.17;11.57;;;;;;;22.82;45.87;102586.50;4990834;28;20037;-77
2021/09/03 00:38:46;;;;;;;22.45;10.65;;;;;;;22.97;45.79;102580.22;4990864;28;20038;-77
2021/09/03 00:41:12;;;;;;;13.85;9.40;;;;;;;23.02;45.56;102587.50;4990695;28;20030;-77
2021/09/03 00:43:38;;;;;;;15.57;10.77;;;;;;;23.10;45.71;102578.16;4989470;28;20087;-77
2021/09/03 00:46:06;;;;;;;15.65;11.05;;;;;;;23.08;45.75;102574.94;4990675;28;20061;-77
2021/09/03 00:48:31;;;;;;;18.23;10.93;;;;;;;23.09;45.65;102576.53;4990531;28;20030;-78
2021/09/03 00:50:57;;;;;;;19.58;10.32;;;;;;;23.05;45.85;102572.88;4990661;28;20105;-77
2021/09/03 00:53:24;;;;;;;19.48;9.65;;;;;;;23.02;46.23;102567.16;4990834;28;20033;-78
2021/09/03 00:55:51;;;;;;;17.70;10.95;;;;;;;23.21;45.89;102570.13;4990783;28;20038;-77
2021/09/03 00:58:20;;;;;;;18.42;11.05;;;;;;;23.33;46.21;102578.41;4990575;28;20060;-78
2021/09/03 01:00:47;;;;;;;22.50;10.32;;;;;;;23.43;46.10;102571.53;4990868;28;20362;-77
2021/09/03 01:03:12;;;;;;;17.85;10.23;;;;;;;23.47;46.54;102562.06;4990529;28;20041;-78
2021/09/03 01:05:38;;;;;;;18.75;9.43;;;;;;;23.53;46.71;102562.63;4990563;28;20439;-77
2021/09/03 01:08:04;;;;;;;19.42;9.10;;;;;;;23.46;47.25;102545.69;4990332;28;20030;-77
2021/09/03 01:10:29;;;;;;;13.60;8.55;;;;;;;23.50;47.43;102549.38;4989460;28;20467;-78
2021/09/03 01:12:56;;;;;;;16.38;10.02;;;;;;;23.46;47.76;102545.69;4990642;28;20046;-78
2021/09/03 01:15:22;;;;;;;18.30;9.95;;;;;;;23.48;47.87;102546.94;4990438;28;20037;-77
2021/09/03 01:17:48;;;;;;;18.65;9.98;;;;;;;23.51;47.58;102542.66;4990453;28;20404;-77
2021/09/03 01:20:14;;;;;;;15.27;10.02;;;;;;;23.50;47.64;102538.22;4990257;28;20037;-77
2021/09/03 01:22:39;;;;;;;19.83;11.43;;;;;;;23.54;47.62;102537.16;4990384;28;20037;-78
2021/09/03 01:25:06;;;;;;;15.57;9.43;;;;;;;23.46;48.29;102535.34;4990218;28;20115;-77
2021/09/03 01:27:32;;;;;;;14.77;9.68;;;;;;;23.40;48.42;102533.16;4990156;28;20065;-77
2021/09/03 01:29:57;;;;;;;17.33;9.88;;;;;;;23.52;48.15;102530.31;4989605;28;20031;-77
2021/09/03 01:32:23;;;;;;;22.45;11.30;;;;;;;23.43;48.61;102524.09;4989218;28;20035;-77
2021/09/03 01:34:48;;;;;;;18.23;10.20;;;;;;;23.44;48.88;102520.16;4990093;28;20469;-77
2021/09/03 01:37:14;;;;;;;21.70;9.40;;;;;;;23.51;48.61;102517.53;4990171;28;20041;-78
2021/09/03 01:39:40;;;;;;;17.33;9.43;;;;;;;23.45;48.87;102532.91;4990159;28;20396;-78
2021/09/03 01:42:06;;;;;;;18.88;11.27;;;;;;;23.41;49.04;102524.44;4991063;28;20121;-77
2021/09/03 01:44:31;;;;;;;18.38;10.18;;;;;;;23.34;48.99;102526.22;4993482;28;20068;-77
2021/09/03 01:46:57;;;;;;;15.65;9.13;;;;;;;23.35;49.29;102519.47;4992093;28;20058;-77
2021/09/03 01:49:23;;;;;;;17.02;9.43;;;;;;;23.33;48.89;102514.25;4993525;28;20027;-77
2021/09/03 01:51:50;;;;;;;17.20;9.40;;;;;;;23.37;49.03;102514.38;4993628;28;20530;-77
2021/09/03 01:54:17;;;;;;;14.25;8.63;;;;;;;23.51;48.62;102515.56;4993349;28;20030;-77
2021/09/03 01:56:43;;;;;;;15.98;9.27;;;;;;;23.55;48.84;102507.28;4993284;28;20039;-77
2021/09/03 01:59:09;;;;;;;16.63;8.90;;;;;;;23.53;48.66;102507.63;4993258;28;20113;-77
2021/09/03 02:01:34;;;;;;;18.55;9.07;;;;;;;23.62;48.90;102503.88;4993172;28;20168;-78
2021/09/03 02:04:00;;;;;;;16.55;9.48;;;;;;;23.72;48.44;102506.94;4993319;28;20034;-77
2021/09/03 02:06:26;;;;;;;18.48;9.40;;;;;;;23.72;48.36;102504.16;4993073;28;20030;-78
2021/09/03 02:08:51;;;;;;;18.67;8.93;;;;;;;23.66;48.67;102502.81;4991785;28;20404;-77
2021/09/03 02:11:17;;;;;;;16.08;8.60;;;;;;;23.65;49.04;102498.38;4993095;28;20100;-77
2021/09/03 02:13:43;;;;;;;20.05;8.98;;;;;;;23.62;49.17;102492.72;4993148;28;20640;-77
2021/09/03 02:16:08;;;;;;;17.90;9.43;;;;;;;23.74;48.86;102498.22;4993040;28;20037;-78
2021/09/03 02:18:34;;;;;;;18.83;9.18;;;;;;;23.77;48.61;102497.50;4992911;28;20104;-78
2021/09/03 02:21:00;;;;;;;20.17;10.27;;;;;;;23.70;49.21;102489.75;4992907;28;20027;-77
2021/09/03 02:23:26;;;;;;;15.82;9.55;;;;;;;23.76;48.86;102487.50;4993065;28;20404;-77
2021/09/03 02:25:52;;;;;;;17.90;9.35;;;;;;;23.56;49.70;102483.78;4992845;28;20042;-77
2021/09/03 02:28:18;;;;;;;22.50;9.40;;;;;;;23.67;49.30;102484.09;4992737;28;20114;-77
2021/09/03 02:30:44;;;;;;;16.95;9.57;;;;;;;23.70;49.22;102486.97;4992728;28;20473;-77
2021/09/03 02:33:11;;;;;;;16.13;9.13;;;;;;;23.63;49.44;102485.97;4992849;28;20365;-77
2021/09/03 02:35:37;;;;;;;21.92;9.55;;;;;;;23.71;49.09;102485.78;4991481;28;20135;-78
2021/09/03 02:38:03;;;;;;;21.50;10.35;;;;;;;23.67;49.48;102486.88;4992641;28;20034;-77
2021/09/03 02:40:29;;;;;;;25.63;10.10;;;;;;;23.65;49.54;102481.63;4992668;28;20088;-77
2021/09/03 02:42:55;;;;;;;20.00;10.38;;;;;;;23.68;49.45;102483.72;4992600;28;20034;-77
2021/09/03 02:45:21;;;;;;;17.10;10.35;;;;;;;23.67;49.68;102481.31;4992548;28;20026;-77
2021/09/03 02:47:47;;;;;;;18.73;10.07;;;;;;;23.74;49.71;102475.91;4992637;28;20122;-77
2021/09/03 02:50:13;;;;;;;21.38;10.27;;;;;;;23.84;49.39;102480.13;4992502;28;20033;-77
2021/09/03 02:52:38;;;;;;;18.50;9.52;;;;;;;23.82;49.36;102474.91;4992411;28;20037;-77
2021/09/03 02:55:04;;;;;;;23.10;10.48;;;;;;;23.76;49.47;102474.34;4991711;28;20087;-78
2021/09/03 02:57:30;;;;;;;21.63;9.52;;;;;;;23.84;49.71;102468.94;4992507;28;20030;-77
2021/09/03 02:59:56;;;;;;;23.10;10.93;;;;;;;23.80;49.64;102475.28;4992412;28;20031;-77
2021/09/03 03:02:21;;;;;;;24.27;9.70;;;;;;;23.75;49.60;102469.94;4992232;28;20026;-77
2021/09/03 03:04:47;;;;;;;23.67;11.90;;;;;;;23.82;49.61;102458.16;4992273;28;20035;-78
2021/09/03 03:07:13;;;;;;;18.48;10.30;;;;;;;23.82;49.53;102463.72;4992243;28;20033;-78
2021/09/03 03:09:39;;;;;;;23.90;9.38;;;;;;;23.77;49.74;102461.22;4992264;28;20027;-78
2021/09/03 03:12:05;;;;;;;19.17;9.90;;;;;;;23.75;49.77;102453.19;4991048;28;20031;-78
2021/09/03 03:14:34;;;;;;;19.88;9.88;;;;;;;23.69;49.76;102449.06;4992155;28;20419;-77
2021/09/03 03:17:01;;;;;;;18.52;10.23;;;;;;;23.63;50.03;102453.28;4992047;28;20427;-78
2021/09/03 03:19:27;;;;;;;16.63;9.63;;;;;;;23.66;50.02;102444.22;5023337;28;20041;-77
2021/09/03 03:21:53;;;;;;;19.55;10.27;;;;;;;23.67;49.71;102440.25;4990819;28;20057;-78
2021/09/03 03:24:19;;;;;;;21.55;10.68;;;;;;;23.70;49.61;102445.09;5023019;28;20610;-77
2021/09/03 03:26:45;;;;;;;19.25;10.55;;;;;;;23.66;49.97;102438.63;4991783;28;20038;-76
2021/09/03 03:29:11;;;;;;;22.67;11.07;;;;;;;23.68;50.03;102438.28;5023555;28;20523;-78
2021/09/03 03:31:37;;;;;;;24.70;11.05;;;;;;;23.71;50.16;102435.56;5023408;28;20125;-77
2021/09/03 03:34:02;;;;;;;20.42;11.25;;;;;;;23.71;50.31;102440.31;4990587;28;20056;-78
2021/09/03 03:36:29;;;;;;;23.95;11.55;;;;;;;23.64;50.27;102434.56;4991912;28;20109;-78
2021/09/03 03:38:54;;;;;;;22.42;11.73;;;;;;;23.62;49.97;102437.72;4991826;28;20536;-77
2021/09/03 03:41:21;;;;;;;20.98;11.93;;;;;;;23.63;50.35;102433.75;4991739;28;20033;-77
2021/09/03 03:43:46;;;;;;;37.47;14.52;;;;;;;23.64;50.41;102429.78;4990406;28;20253;-77
2021/09/03 03:46:12;;;;;;;21.02;12.57;;;;;;;23.70;50.13;102428.34;4991666;28;20110;-78
2021/09/03 03:48:38;;;;;;;21.50;11.35;;;;;;;23.77;50.16;102428.53;4991552;28;20034;-77
2021/09/03 03:51:04;;;;;;;24.67;12.75;;;;;;;23.72;50.37;102428.00;4991494;28;20034;-77
2021/09/03 03:53:29;;;;;;;24.50;11.43;;;;;;;23.80;49.86;102425.03;4991542;28;20034;-77
2021/09/03 03:55:55;;;;;;;26.67;12.43;;;;;;;23.79;50.28;102426.16;4991505;28;20041;-78
2021/09/03 03:58:21;;;;;;;26.17;13.70;;;;;;;23.80;50.03;102415.81;4991560;28;20500;-78
2021/09/03 04:00:46;;;;;;;20.88;12.45;;;;;;;23.77;50.09;102422.94;4991502;28;20034;-77
2021/09/03 04:03:12;;;;;;;24.33;14.13;;;;;;;23.81;50.16;102423.03;4991363;28;20034;-77
2021/09/03 04:05:38;;;;;;;24.38;13.23;;;;;;;23.82;49.97;102415.47;4990193;28;20040;-77
2021/09/03 04:08:04;;;;;;;23.05;12.13;;;;;;;23.80;49.63;102419.44;4991348;28;20494;-77
2021/09/03 04:10:30;;;;;;;24.30;12.32;;;;;;;23.82;50.07;102413.50;4991221;28;20030;-77
2021/09/03 04:12:56;;;;;;;28.25;12.25;;;;;;;23.85;49.60;102411.94;4991290;28;20034;-78
2021/09/03 04:15:22;;;;;;;27.27;13.10;;;;;;;23.88;49.59;102411.22;4991420;28;20027;-77
2021/09/03 04:17:47;;;;;;;25.00;13.15;;;;;;;23.89;49.42;102408.06;4991211;28;20035;-78
2021/09/03 04:20:13;;;;;;;23.42;13.38;;;;;;;23.83;49.85;102400.34;4991164;28;20057;-78
2021/09/03 04:22:39;;;;;;;26.90;12.93;;;;;;;23.88;49.62;102398.09;4989822;28;20034;-77
2021/09/03 04:25:06;;;;;;;23.83;13.40;;;;;;;23.86;49.50;102405.19;4989652;28;20561;-77
2021/09/03 04:27:33;;;;;;;23.00;12.05;;;;;;;23.81;49.48;102400.72;4989567;28;20030;-78
2021/09/03 04:29:58;;;;;;;25.17;12.90;;;;;;;23.83;49.42;102397.56;5022488;28;20035;-78
2021/09/03 04:32:24;;;;;;;28.60;14.20;;;;;;;23.79;49.64;102406.63;4991146;28;20060;-78
2021/09/03 04:34:50;;;;;;;20.00;14.20;;;;;;;23.90;49.38;102401.31;4991030;28;20461;-78
2021/09/03 04:37:16;;;;;;;22.67;13.38;;;;;;;23.89;49.10;102398.91;4990932;28;20030;-77
2021/09/03 04:39:41;;;;;;;31.58;14.43;;;;;;;23.79;49.36;102398.25;4990906;28;20392;-78
2021/09/03 04:42:07;;;;;;;22.85;13.88;;;;;;;23.82;49.42;102401.53;4990796;28;20084;-77
2021/09/03 04:44:33;;;;;;;27.88;15.27;;;;;;;23.87;49.21;102398.44;4991044;28;20041;-78
2021/09/03 04:46:59;;;;;;;30.98;14.30;;;;;;;23.86;49.40;102397.63;4990655;28;20038;-77
2021/09/03 04:49:24;;;;;;;28.13;13.82;;;;;;;23.90;49.28;102400.50;4990770;28;20058;-77
2021/09/03 04:51:50;;;;;;;25.63;13.73;;;;;;;23.89;49.44;102401.69;4990882;28;20052;-78
2021/09/03 04:54:16;;;;;;;26.42;13.10;;;;;;;23.95;48.87;102391.81;4990750;28;20358;-77
2021/09/03 04:56:42;;;;;;;20.58;13.18;;;;;;;24.16;48.42;102394.28;4990744;28;20489;-77
2021/09/03 04:59:08;;;;;;;25.15;14.55;;;;;;;24.07;48.97;102400.09;4990910;28;20362;-78
2021/09/03 05:01:33;;;;;;;23.98;13.40;;;;;;;24.01;48.85;102393.97;4990610;28;20031;-77
2021/09/03 05:03:59;;;;;;;27.10;13.80;;;;;;;24.04;49.28;102392.44;4990713;28;20034;-77
2021/09/03 05:06:24;;;;;;;27.50;14.70;;;;;;;23.94;49.16;102390.22;4990540;28;20037;-78
2021/09/03 05:08:50;;;;;;;22.27;13.32;;;;;;;24.02;49.15;102395.59;4990415;28;20030;-78
2021/09/03 05:11:16;;;;;;;25.20;13.88;;;;;;;24.06;49.03;102393.69;4990567;28;20095;-77
2021/09/03 05:13:42;;;;;;;24.02;14.38;;;;;;;24.17;48.73;102391.13;5022081;28;20389;-77
2021/09/03 05:16:08;;;;;;;22.10;14.77;;;;;;;24.15;48.69;102385.09;4990234;28;20030;-75
2021/09/03 05:18:34;;;;;;;25.95;13.52;;;;;;;24.14;48.53;102380.69;4990212;28;20095;-77
2021/09/03 05:21:00;;;;;;;27.73;13.80;;;;;;;24.10;48.90;102385.38;4990470;28;20030;-78
2021/09/03 05:23:26;;;;;;;26.25;13.27;;;;;;;24.03;49.05;102388.03;4990112;28;20033;-77
2021/09/03 05:25:51;;;;;;;26.75;13.95;;;;;;;24.16;48.62;102383.91;4990507;28;20039;-77
2021/09/03 05:28:17;;;;;;;25.00;13.65;;;;;;;24.04;48.83;102381.28;4990222;28;20034;-78
2021/09/03 05:30:43;;;;;;;32.22;13.77;;;;;;;24.07;48.67;102380.53;4990103;28;20030;-78
2021/09/03 05:33:08;;;;;;;30.83;14.63;;;;;;;23.97;49.22;102381.13;4990497;28;20103;-77
2021/09/03 05:35:34;;;;;;;24.52;13.32;;;;;;;23.97;49.22;102375.53;4990232;28;20123;-77
2021/09/03 05:38:04;;;;;;;23.33;14.40;;;;;;;23.98;49.23;102372.38;4990199;28;20030;-78
2021/09/03 05:40:30;;;;;;;;;;;;;;;23.96;49.13;102374.75;4990551;28;20022;-78
2021/09/03 05:42:55;;;;;;;21.67;13.57;;;;;;;24.02;48.90;102369.66;4990154;28;19936;-77
2021/09/03 05:45:21;;;;;;;23.38;15.50;;;;;;;24.20;48.50;102370.06;4990022;28;20037;-76
2021/09/03 05:47:47;;;;;;;21.52;13.88;;;;;;;24.17;48.39;102370.75;4989887;28;20039;-77
2021/09/03 05:50:14;;;;;;;25.08;14.70;;;;;;;23.96;48.73;102373.94;4990038;28;20434;-76
2021/09/03 05:52:40;;;;;;;23.90;14.13;;;;;;;23.93;48.90;102371.84;4988725;28;20030;-78
2021/09/03 05:55:06;;;;;;;20.42;13.85;;;;;;;23.90;48.78;102369.81;4988660;28;20126;-76
2021/09/03 05:57:31;;;;;;;26.17;14.52;;;;;;;23.90;48.71;102372.59;5021321;28;20029;-76
2021/09/03 05:59:59;;;;;;;21.67;14.27;;;;;;;23.97;48.88;102375.53;4989917;28;20054;-76
2021/09/03 06:02:25;;;;;;;29.55;14.43;;;;;;;23.91;48.91;102379.78;4990029;28;20430;-77
2021/09/03 06:04:50;;;;;;;25.52;14.80;;;;;;;24.00;48.41;102369.22;4989820;28;20038;-77
2021/09/03 06:07:16;;;;;;;23.13;14.75;;;;;;;23.92;48.64;102371.03;4989788;28;20041;-76
2021/09/03 06:09:42;;;;;;;27.38;15.30;;;;;;;23.92;48.62;102376.63;4989735;28;20492;-76
2021/09/03 06:12:08;;;;;;;26.35;14.48;;;;;;;23.92;48.47;102375.81;4989689;28;20036;-76
2021/09/03 06:14:34;;;;;;;36.25;15.32;;;;;;;23.90;48.33;102373.41;4989725;28;20026;-76
2021/09/03 06:17:00;;;;;;;23.75;15.80;;;;;;;23.92;47.84;102378.63;4989724;28;20131;-78
2021/09/03 06:19:26;;;;;;;26.50;16.20;;;;;;;23.83;48.18;102378.00;4989660;28;20507;-76
2021/09/03 06:21:52;;;;;;;23.25;15.18;;;;;;;23.85;47.93;102373.69;4989452;28;20031;-76
2021/09/03 06:24:32;;;;;;;25.08;16.27;;;;;;;23.85;48.20;102370.88;4989385;28;20050;-76
2021/09/03 06:27:04;;;;;;;33.10;15.38;;;;;;;23.85;48.05;102367.28;4989341;28;20030;-77
2021/09/03 06:29:42;;;;;;;25.70;16.13;;;;;;;23.78;48.26;102367.94;5022612;28;20026;-76
2021/09/03 06:32:21;;;;;;;26.33;15.48;;;;;;;23.84;47.71;102369.28;4992849;28;20030;-77
2021/09/03 06:34:57;;;;;;;26.48;15.00;;;;;;;24.03;47.38;102371.25;4991653;28;20046;-76
2021/09/03 06:37:25;;;;;;;28.65;15.10;;;;;;;24.07;47.01;102375.75;4992774;28;20034;-77
2021/09/03 06:39:51;;;;;;;32.25;15.00;;;;;;;24.01;47.02;102365.25;4992870;28;20034;-75
2021/09/03 06:42:18;;;;;;;20.55;15.02;;;;;;;24.00;47.09;102375.59;4992597;28;20036;-76
2021/09/03 06:44:44;;;;;;;18.35;13.00;;;;;;;24.08;46.70;102371.78;4992875;28;20023;-78
2021/09/03 06:47:11;;;;;;;25.10;15.05;;;;;;;24.19;46.43;102363.66;4992447;28;20027;-78
2021/09/03 06:49:38;;;;;;;27.40;14.57;;;;;;;24.09;46.81;102373.41;5023911;28;20030;-78
2021/09/03 06:52:05;;;;;;;22.83;13.45;;;;;;;24.11;46.23;102366.63;4992581;28;20040;-76
2021/09/03 06:54:32;;;;;;;25.75;13.00;;;;;;;24.10;46.51;102354.66;4991094;28;20034;-76
2021/09/03 06:56:58;;;;;;;31.45;15.27;;;;;;;24.25;45.92;102364.94;4992602;28;20412;-76
2021/09/03 06:59:24;;;;;;;20.30;12.98;;;;;;;24.11;46.45;102361.06;4992403;28;20026;-76
2021/09/03 07:01:49;;;;;;;24.33;12.65;;;;;;;24.18;45.93;102364.84;4992446;28;20030;-76
2021/09/03 07:04:15;;;;;;;19.42;13.02;;;;;;;24.32;46.00;102358.72;4992379;28;20052;-75
2021/09/03 07:06:41;;;;;;;21.38;12.65;;;;;;;24.30;45.42;102367.47;4992300;28;20034;-76
2021/09/03 07:09:06;;;;;;;16.40;11.57;;;;;;;24.21;45.68;102366.88;4992363;28;20034;-74
2021/09/03 07:11:34;;;;;;;23.30;12.07;;;;;;;24.12;45.69;102363.50;4992415;28;20030;-74
2021/09/03 07:14:01;;;;;;;25.58;13.18;;;;;;;24.15;45.80;102361.97;4992237;28;20041;-76
2021/09/03 07:16:26;;;;;;;24.30;11.88;;;;;;;24.16;45.72;102367.16;4990984;28;20133;-77
2021/09/03 07:18:52;;;;;;;28.13;13.57;;;;;;;24.16;45.69;102367.16;4990928;28;20433;-77
2021/09/03 07:21:18;;;;;;;18.45;11.85;;;;;;;24.21;45.32;102372.47;4989753;28;20027;-77
2021/09/03 07:23:44;;;;;;;25.65;12.18;;;;;;;24.18;45.12;102373.22;4991562;28;20516;-76
2021/09/03 07:26:09;;;;;;;20.13;11.95;;;;;;;24.23;45.18;102369.31;4993006;28;20037;-76
2021/09/03 07:28:35;;;;;;;21.45;12.25;;;;;;;24.12;45.09;102366.31;4990499;28;20038;-76
2021/09/03 07:31:01;;;;;;;18.65;10.70;;;;;;;24.14;44.77;102363.13;4991214;28;20030;-76
2021/09/03 07:33:26;;;;;;;20.98;12.38;;;;;;;24.28;44.89;102372.63;4991133;28;20030;-76
2021/09/03 07:35:52;;;;;;;17.88;11.30;;;;;;;24.38;44.61;102374.03;4985837;28;20034;-76
2021/09/03 07:38:18;;;;;;;26.85;12.40;;;;;;;24.39;44.74;102369.25;4976125;28;20034;-77
2021/09/03 07:40:44;;;;;;;17.77;10.57;;;;;;;24.20;44.67;102379.22;4974573;28;20138;-76
2021/09/03 07:43:10;;;;;;;22.95;11.75;;;;;;;24.33;44.79;102375.16;4975208;28;20034;-75
2021/09/03 07:45:37;;;;;;;21.50;11.35;;;;;;;24.43;44.61;102376.53;4975348;28;20026;-75
2021/09/03 07:48:04;;;;;;;20.17;10.75;;;;;;;24.38;44.47;102373.22;4974075;28;20076;-76
2021/09/03 07:50:32;;;;;;;18.13;11.35;;;;;;;24.44;44.40;102378.16;4974166;28;20026;-76
2021/09/03 07:52:58;;;;;;;19.42;11.30;;;;;;;24.53;44.19;102370.34;4975039;28;20028;-76
2021/09/03 07:55:23;;;;;;;26.88;12.38;;;;;;;24.61;43.72;102366.50;4975916;28;20038;-76
2021/09/03 07:57:49;;;;;;;18.45;12.55;;;;;;;24.62;43.68;102359.72;4975127;28;20062;-76
2021/09/03 08:00:16;;;;;;;21.75;13.27;;;;;;;24.54;43.91;102366.38;4989247;28;20038;-75
2021/09/03 08:02:42;;;;;;;18.40;11.90;;;;;;;24.62;43.69;102372.91;5004672;28;20504;-75
2021/09/03 08:05:08;;;;;;;21.05;12.75;;;;;;;24.78;43.68;102372.78;5010711;28;20117;-76
2021/09/03 08:07:33;;;;;;;24.73;14.30;;;;;;;24.74;43.38;102369.94;5010814;28;20030;-75
2021/09/03 08:09:59;;;;;;;20.95;11.88;;;;;;;24.93;43.51;102366.28;5011076;28;20034;-76
2021/09/03 08:12:25;;;;;;;22.70;12.77;;;;;;;24.93;43.17;102366.28;5010754;28;20081;-75
2021/09/03 08:14:51;;;;;;;23.85;12.55;;;;;;;24.94;43.25;102370.72;4989295;28;20420;-75
2021/09/03 08:17:17;;;;;;;28.10;13.07;;;;;;;25.03;43.13;102364.88;4973975;28;20041;-76
2021/09/03 08:19:43;;;;;;;23.27;13.25;;;;;;;25.15;42.88;102367.50;4974564;28;20377;-77
2021/09/03 08:22:09;;;;;;;26.52;12.35;;;;;;;25.00;43.60;102366.41;4973513;28;20037;-77
2021/09/03 08:24:36;;;;;;;18.15;11.85;;;;;;;25.14;43.38;102365.88;4973256;28;20776;-77
2021/09/03 08:27:01;;;;;;;23.65;10.90;;;;;;;25.05;43.29;102371.72;4972243;28;20031;-76
2021/09/03 08:29:27;;;;;;;21.42;11.32;;;;;;;25.07;42.76;102369.38;4972932;28;20075;-77
2021/09/03 08:31:53;;;;;;;18.58;10.88;;;;;;;25.00;42.83;102374.81;4973873;28;20137;-76
2021/09/03 08:34:18;;;;;;;35.40;13.10;;;;;;;25.07;42.84;102374.16;4974052;28;20027;-76
2021/09/03 08:36:44;;;;;;;18.25;9.82;;;;;;;25.18;42.29;102373.16;4973225;28;20117;-76
2021/09/03 08:39:09;;;;;;;20.35;11.57;;;;;;;25.24;42.17;102364.44;4982135;28;20476;-76
2021/09/03 08:41:37;;;;;;;15.38;11.20;;;;;;;25.20;42.40;102366.38;4990943;28;20485;-76
2021/09/03 08:44:03;;;;;;;19.13;10.52;;;;;;;25.24;42.14;102364.44;4990797;28;20030;-75
2021/09/03 08:46:32;;;;;;;20.08;10.52;;;;;;;25.30;41.93;102363.75;4981537;28;20026;-76
2021/09/03 08:49:00;;;;;;;19.20;10.70;;;;;;;25.36;41.80;102362.25;4973108;28;20065;-76
2021/09/03 08:51:26;;;;;;;20.98;12.23;;;;;;;25.42;41.91;102360.75;4972537;28;20030;-76
2021/09/03 08:53:52;;;;;;;25.02;11.98;;;;;;;25.48;42.40;102357.66;4974414;28;20438;-76
2021/09/03 08:56:21;;;;;;;26.63;12.15;;;;;;;25.52;42.53;102364.91;4974482;28;20034;-76
2021/09/03 08:58:48;;;;;;;17.88;11.07;;;;;;;25.59;42.57;102365.00;4972885;28;20034;-76
2021/09/03 09:01:16;;;;;;;16.52;11.05;;;;;;;25.57;42.57;102367.38;4974066;28;20077;-76
2021/09/03 09:03:43;;;;;;;18.20;11.25;;;;;;;25.60;42.93;102372.22;4974609;28;20018;-76
2021/09/03 09:06:11;;;;;;;18.10;11.60;;;;;;;25.63;42.89;102362.28;4974133;28;20527;-76
2021/09/03 09:08:38;;;;;;;21.30;10.98;;;;;;;25.64;42.92;102361.88;4987445;28;20034;-76
2021/09/03 09:11:05;;;;;;;29.27;11.50;;;;;;;25.76;43.01;102366.47;4990087;28;20101;-76
2021/09/03 09:13:32;;;;;;;22.33;11.65;;;;;;;25.70;43.04;102365.19;4988909;28;20386;-75
2021/09/03 09:16:03;;;;;;;27.40;12.48;;;;;;;25.87;42.95;102361.03;4990302;28;20435;-76
2021/09/03 09:18:36;;;;;;;24.02;12.40;;;;;;;25.68;42.40;102367.53;4988668;28;20076;-76
2021/09/03 09:21:18;;;;;;;17.13;11.07;;;;;;;25.62;42.44;102364.28;4998597;28;20146;-76
2021/09/03 09:23:49;;;;;;;20.92;11.75;;;;;;;25.58;42.42;102365.38;5009606;28;20069;-76
2021/09/03 09:26:16;;;;;;;19.60;10.88;;;;;;;25.53;41.78;102360.09;5009794;28;20025;-76
2021/09/03 09:28:43;;;;;;;18.88;11.52;;;;;;;25.48;41.88;102360.44;5009657;28;20030;-75
2021/09/03 09:31:09;;;;;;;27.13;11.98;;;;;;;25.60;41.89;102360.22;5007532;28;20041;-76
2021/09/03 09:33:35;;;;;;;34.03;13.32;;;;;;;25.57;41.86;102363.78;5008099;28;20052;-76
2021/09/03 09:36:03;;;;;;;14.73;9.93;;;;;;;25.60;41.86;102366.63;5009174;28;20026;-77
2021/09/03 09:38:38;;;;;;;16.35;9.93;;;;;;;25.36;41.71;102372.63;5009597;28;20028;-76
2021/09/03 09:41:08;;;;;;;60.33;13.85;;;;;;;25.33;41.13;102373.41;5008176;28;20026;-75
2021/09/03 09:43:39;;;;;;;18.35;10.13;;;;;;;25.21;40.79;102379.19;5009595;28;20022;-76
2021/09/03 09:46:07;;;;;;;17.92;8.98;;;;;;;24.99;41.37;102370.41;5009623;28;20056;-76
2021/09/03 09:49:00;;;;;;;16.17;8.50;;;;;;;25.13;40.99;102383.84;5006460;28;20026;-77
2021/09/03 09:51:29;;;;;;;17.02;9.43;;;;;;;25.05;41.32;102371.72;5002306;28;20528;-76
2021/09/03 09:54:09;;;;;;;16.02;10.25;;;;;;;24.92;41.07;102379.47;5008165;28;20025;-77
2021/09/03 09:56:41;;;;;;;17.98;8.60;;;;;;;24.80;41.36;102376.84;5008252;28;20116;-76
2021/09/03 09:59:09;;;;;;;18.17;9.77;;;;;;;24.85;41.20;102370.13;5009402;28;20077;-77
2021/09/03 10:01:37;;;;;;;14.63;8.00;;;;;;;24.88;41.48;102370.22;5008003;28;20139;-76
2021/09/03 10:04:06;;;;;;;16.45;9.70;;;;;;;25.01;40.91;102376.41;5011770;28;20543;-77
2021/09/03 10:06:33;;;;;;;17.90;10.18;;;;;;;25.09;40.68;102377.38;5011393;28;20026;-77
2021/09/03 10:08:59;;;;;;;16.10;8.70;;;;;;;25.13;40.69;102367.06;5012513;28;20061;-77
2021/09/03 10:11:26;;;;;;;16.67;9.73;;;;;;;25.13;41.01;102365.06;5012766;28;20030;-76
2021/09/03 10:13:53;;;;;;;15.35;9.48;;;;;;;25.05;40.64;102366.13;5012636;28;20028;-76
2021/09/03 10:16:20;;;;;;;14.57;9.98;;;;;;;25.12;40.08;102362.66;5012889;28;20050;-76
2021/09/03 10:18:53;;;;;;;112.10;19.70;;;;;;;25.06;40.08;102348.19;5010886;28;20022;-77
2021/09/03 10:21:22;;;;;;;16.50;8.65;;;;;;;25.20;39.88;102352.41;5012680;28;20033;-77
2021/09/03 10:23:53;;;;;;;16.90;9.80;;;;;;;25.27;40.18;102358.13;5012487;28;20623;-76
2021/09/03 10:26:28;;;;;;;23.08;10.10;;;;;;;25.48;40.01;102354.84;5012417;28;20499;-76
2021/09/03 10:29:22;;;;;;;14.52;9.68;;;;;;;25.56;39.87;102350.97;5012252;28;20484;-77
2021/09/03 10:32:08;;;;;;;17.73;9.65;;;;;;;25.49;39.72;102351.66;5012246;28;20122;-77
2021/09/03 10:34:43;;;;;;;16.20;10.63;;;;;;;25.51;40.03;102354.09;5012195;28;20026;-76
2021/09/03 10:37:15;;;;;;;19.00;11.25;;;;;;;25.69;39.48;102346.75;5004732;28;20033;-77
2021/09/03 10:39:59;;;;;;;21.15;10.30;;;;;;;25.62;39.66;102352.28;4992674;28;20038;-78
2021/09/03 10:42:36;;;;;;;15.15;9.38;;;;;;;25.54;40.06;102361.72;4992775;28;20091;-75
2021/09/03 10:45:05;;;;;;;16.85;10.07;;;;;;;25.58;39.68;102355.00;4991245;28;20065;-75
2021/09/03 10:47:47;;;;;;;13.45;9.65;;;;;;;25.56;39.80;102353.78;4992280;28;20026;-76
2021/09/03 10:50:20;;;;;;;13.80;10.48;;;;;;;25.27;39.75;102353.31;4990992;28;20113;-75
2021/09/03 10:53:04;;;;;;;16.30;9.82;;;;;;;25.32;39.85;102339.03;4982203;28;20026;-75
2021/09/03 10:56:07;;;;;;;17.15;13.07;;;;;;;25.07;40.23;102348.97;5006827;28;20058;-75
2021/09/03 10:58:44;;;;;;;22.58;15.45;;;;;;;25.21;39.92;102343.63;5010907;28;20037;-75
2021/09/03 11:01:10;;;;;;;24.25;14.68;;;;;;;25.11;40.44;102335.88;5009972;28;20030;-75
2021/09/03 11:03:45;;;;;;;27.05;15.50;;;;;;;25.03;40.53;102342.50;5009946;28;20027;-75
2021/09/03 11:06:29;;;;;;;20.48;15.93;;;;;;;25.04;40.65;102338.56;5009820;28;20033;-75
2021/09/03 11:09:01;;;;;;;22.52;16.20;;;;;;;24.97;40.95;102336.41;5008595;28;20454;-76
2021/09/03 11:11:39;;;;;;;30.75;15.80;;;;;;;24.98;40.84;102328.81;5009604;28;20092;-76
2021/09/03 11:14:07;;;;;;;19.92;13.10;;;;;;;25.01;40.82;102323.28;5007928;28;20030;-76